sensor_id;sensor_type;location;lat;lon;timestamp;temperature;humidity
4530;DHT22;2277;51.626;7.516;2023-07-22T00:00:15;18.00;99.90
4530;DHT22;2277;51.626;7.516;2023-07-22T00:02:42;18.00;99.90
4530;DHT22;2277;51.626;7.516;2023-07-22T00:05:08;18.00;99.90
4530;DHT22;2277;51.626;7.516;2023-07-22T00:07:33;18.00;99.90
4530;DHT22;2277;51.626;7.516;2023-07-22T00:09:59;17.80;99.90
4530;DHT22;2277;51.626;7.516;2023-07-22T00:12:25;17.90;99.90
4530;DHT22;2277;51.626;7.516;2023-07-22T00:14:51;17.90;99.90
4530;DHT22;2277;51.626;7.516;2023-07-22T00:17:18;17.90;99.90
4530;DHT22;2277;51.626;7.516;2023-07-22T00:19:44;17.80;99.90
4530;DHT22;2277;51.626;7.516;2023-07-22T00:22:09;17.80;99.90
4530;DHT22;2277;51.626;7.516;2023-07-22T00:24:35;17.80;99.90
4530;DHT22;2277;51.626;7.516;2023-07-22T00:27:01;17.70;99.90
4530;DHT22;2277;51.626;7.516;2023-07-22T00:29:26;17.60;99.90
4530;DHT22;2277;51.626;7.516;2023-07-22T00:31:52;17.60;99.90
4530;DHT22;2277;51.626;7.516;2023-07-22T00:34:18;17.50;99.90
4530;DHT22;2277;51.626;7.516;2023-07-22T00:36:44;17.50;99.90
4530;DHT22;2277;51.626;7.516;2023-07-22T00:39:11;17.60;99.90
4530;DHT22;2277;51.626;7.516;2023-07-22T00:41:39;17.70;99.90
4530;DHT22;2277;51.626;7.516;2023-07-22T00:44:06;17.80;99.90
4530;DHT22;2277;51.626;7.516;2023-07-22T00:46:31;17.80;99.90
4530;DHT22;2277;51.626;7.516;2023-07-22T00:48:57;17.80;99.90
4530;DHT22;2277;51.626;7.516;2023-07-22T00:51:23;17.70;99.90
4530;DHT22;2277;51.626;7.516;2023-07-22T00:53:48;17.70;99.90
4530;DHT22;2277;51.626;7.516;2023-07-22T00:56:14;17.70;99.90
4530;DHT22;2277;51.626;7.516;2023-07-22T00:58:40;17.60;99.90
4530;DHT22;2277;51.626;7.516;2023-07-22T01:01:05;17.60;99.90
4530;DHT22;2277;51.626;7.516;2023-07-22T01:03:31;17.70;99.90
4530;DHT22;2277;51.626;7.516;2023-07-22T01:05:57;17.80;99.90
4530;DHT22;2277;51.626;7.516;2023-07-22T01:08:24;17.80;99.90
4530;DHT22;2277;51.626;7.516;2023-07-22T01:10:49;17.80;99.90
4530;DHT22;2277;51.626;7.516;2023-07-22T01:13:15;17.80;99.90
4530;DHT22;2277;51.626;7.516;2023-07-22T01:15:41;17.80;99.90
4530;DHT22;2277;51.626;7.516;2023-07-22T01:18:07;17.80;99.90
4530;DHT22;2277;51.626;7.516;2023-07-22T01:20:33;17.80;99.90
4530;DHT22;2277;51.626;7.516;2023-07-22T01:22:58;17.80;99.90
4530;DHT22;2277;51.626;7.516;2023-07-22T01:25:24;17.80;99.90
4530;DHT22;2277;51.626;7.516;2023-07-22T01:27:51;17.80;99.90
4530;DHT22;2277;51.626;7.516;2023-07-22T01:30:17;17.70;99.90
4530;DHT22;2277;51.626;7.516;2023-07-22T01:32:43;17.70;99.90
4530;DHT22;2277;51.626;7.516;2023-07-22T01:35:09;17.70;99.90
4530;DHT22;2277;51.626;7.516;2023-07-22T01:37:35;17.70;99.90
4530;DHT22;2277;51.626;7.516;2023-07-22T01:40:01;17.60;99.90
4530;DHT22;2277;51.626;7.516;2023-07-22T01:42:28;17.60;99.90
4530;DHT22;2277;51.626;7.516;2023-07-22T01:44:54;17.60;99.90
4530;DHT22;2277;51.626;7.516;2023-07-22T01:47:19;17.60;99.90
4530;DHT22;2277;51.626;7.516;2023-07-22T01:49:45;17.70;99.90
4530;DHT22;2277;51.626;7.516;2023-07-22T01:52:11;17.70;99.90
4530;DHT22;2277;51.626;7.516;2023-07-22T01:54:36;17.60;99.90
4530;DHT22;2277;51.626;7.516;2023-07-22T01:57:02;17.60;99.90
4530;DHT22;2277;51.626;7.516;2023-07-22T01:59:27;17.50;99.90
4530;DHT22;2277;51.626;7.516;2023-07-22T02:01:53;17.50;99.90
4530;DHT22;2277;51.626;7.516;2023-07-22T02:04:18;17.40;99.90
4530;DHT22;2277;51.626;7.516;2023-07-22T02:06:44;17.40;99.90
4530;DHT22;2277;51.626;7.516;2023-07-22T02:09:10;17.40;99.90
4530;DHT22;2277;51.626;7.516;2023-07-22T02:11:38;17.40;99.90
4530;DHT22;2277;51.626;7.516;2023-07-22T02:14:04;17.40;99.90
4530;DHT22;2277;51.626;7.516;2023-07-22T02:16:34;17.40;99.90
4530;DHT22;2277;51.626;7.516;2023-07-22T02:19:00;17.40;99.90
4530;DHT22;2277;51.626;7.516;2023-07-22T02:21:25;17.40;99.90
4530;DHT22;2277;51.626;7.516;2023-07-22T02:23:51;17.40;99.90
4530;DHT22;2277;51.626;7.516;2023-07-22T02:26:17;17.30;99.90
4530;DHT22;2277;51.626;7.516;2023-07-22T02:28:42;17.30;99.90
4530;DHT22;2277;51.626;7.516;2023-07-22T02:31:08;17.30;99.90
4530;DHT22;2277;51.626;7.516;2023-07-22T02:33:34;17.30;99.90
4530;DHT22;2277;51.626;7.516;2023-07-22T02:35:59;17.30;99.90
4530;DHT22;2277;51.626;7.516;2023-07-22T02:38:25;17.30;99.90
4530;DHT22;2277;51.626;7.516;2023-07-22T02:40:50;17.40;99.90
4530;DHT22;2277;51.626;7.516;2023-07-22T02:43:16;17.30;99.90
4530;DHT22;2277;51.626;7.516;2023-07-22T02:45:41;17.30;99.90
4530;DHT22;2277;51.626;7.516;2023-07-22T02:48:07;17.30;99.90
4530;DHT22;2277;51.626;7.516;2023-07-22T02:50:32;17.30;99.90
4530;DHT22;2277;51.626;7.516;2023-07-22T02:52:58;17.30;99.90
4530;DHT22;2277;51.626;7.516;2023-07-22T02:55:24;17.30;99.90
4530;DHT22;2277;51.626;7.516;2023-07-22T02:57:50;17.10;99.90
4530;DHT22;2277;51.626;7.516;2023-07-22T03:00:18;17.20;99.90
4530;DHT22;2277;51.626;7.516;2023-07-22T03:02:55;17.10;99.90
4530;DHT22;2277;51.626;7.516;2023-07-22T03:05:27;17.20;99.90
4530;DHT22;2277;51.626;7.516;2023-07-22T03:07:53;17.30;99.90
4530;DHT22;2277;51.626;7.516;2023-07-22T03:10:19;17.20;99.90
4530;DHT22;2277;51.626;7.516;2023-07-22T03:12:45;17.30;99.90
4530;DHT22;2277;51.626;7.516;2023-07-22T03:15:10;17.30;99.90
4530;DHT22;2277;51.626;7.516;2023-07-22T03:17:38;17.30;99.90
4530;DHT22;2277;51.626;7.516;2023-07-22T03:20:05;17.30;99.90
4530;DHT22;2277;51.626;7.516;2023-07-22T03:22:43;17.30;99.90
4530;DHT22;2277;51.626;7.516;2023-07-22T03:25:13;17.30;99.90
4530;DHT22;2277;51.626;7.516;2023-07-22T03:27:39;17.20;99.90
4530;DHT22;2277;51.626;7.516;2023-07-22T03:30:06;17.30;99.90
4530;DHT22;2277;51.626;7.516;2023-07-22T03:32:33;17.30;99.90
4530;DHT22;2277;51.626;7.516;2023-07-22T03:34:59;17.30;99.90
4530;DHT22;2277;51.626;7.516;2023-07-22T03:37:25;17.20;99.90
4530;DHT22;2277;51.626;7.516;2023-07-22T03:39:50;17.20;99.90
4530;DHT22;2277;51.626;7.516;2023-07-22T03:42:16;17.10;99.90
4530;DHT22;2277;51.626;7.516;2023-07-22T03:44:41;17.10;99.90
4530;DHT22;2277;51.626;7.516;2023-07-22T03:47:07;17.10;99.90
4530;DHT22;2277;51.626;7.516;2023-07-22T03:49:33;17.10;99.90
4530;DHT22;2277;51.626;7.516;2023-07-22T03:51:58;17.00;99.90
4530;DHT22;2277;51.626;7.516;2023-07-22T03:54:24;17.00;99.90
4530;DHT22;2277;51.626;7.516;2023-07-22T03:56:49;17.00;99.90
4530;DHT22;2277;51.626;7.516;2023-07-22T03:59:15;17.00;99.90
4530;DHT22;2277;51.626;7.516;2023-07-22T04:01:40;16.90;99.90
4530;DHT22;2277;51.626;7.516;2023-07-22T04:04:06;17.00;99.90
4530;DHT22;2277;51.626;7.516;2023-07-22T04:06:31;17.10;99.90
4530;DHT22;2277;51.626;7.516;2023-07-22T04:08:57;17.00;99.90
4530;DHT22;2277;51.626;7.516;2023-07-22T04:11:22;17.00;99.90
4530;DHT22;2277;51.626;7.516;2023-07-22T04:13:48;16.90;99.90
4530;DHT22;2277;51.626;7.516;2023-07-22T04:16:14;16.90;99.90
4530;DHT22;2277;51.626;7.516;2023-07-22T04:18:40;16.90;99.90
4530;DHT22;2277;51.626;7.516;2023-07-22T04:21:05;16.80;99.90
4530;DHT22;2277;51.626;7.516;2023-07-22T04:23:31;16.80;99.90
4530;DHT22;2277;51.626;7.516;2023-07-22T04:25:58;16.70;99.90
4530;DHT22;2277;51.626;7.516;2023-07-22T04:28:24;16.80;99.90
4530;DHT22;2277;51.626;7.516;2023-07-22T04:30:57;16.80;99.90
4530;DHT22;2277;51.626;7.516;2023-07-22T04:33:24;16.80;99.90
4530;DHT22;2277;51.626;7.516;2023-07-22T04:35:50;16.80;99.90
4530;DHT22;2277;51.626;7.516;2023-07-22T04:38:18;16.80;99.90
4530;DHT22;2277;51.626;7.516;2023-07-22T04:40:44;16.90;99.90
4530;DHT22;2277;51.626;7.516;2023-07-22T04:43:09;17.00;99.90
4530;DHT22;2277;51.626;7.516;2023-07-22T04:45:35;17.10;99.90
4530;DHT22;2277;51.626;7.516;2023-07-22T04:48:01;17.20;99.90
4530;DHT22;2277;51.626;7.516;2023-07-22T04:50:27;17.20;99.90
4530;DHT22;2277;51.626;7.516;2023-07-22T04:52:54;17.30;99.90
4530;DHT22;2277;51.626;7.516;2023-07-22T04:55:20;17.30;99.90
4530;DHT22;2277;51.626;7.516;2023-07-22T04:57:45;17.40;99.90
4530;DHT22;2277;51.626;7.516;2023-07-22T05:00:12;17.40;99.90
4530;DHT22;2277;51.626;7.516;2023-07-22T05:02:42;17.40;99.90
4530;DHT22;2277;51.626;7.516;2023-07-22T05:05:12;17.40;99.90
4530;DHT22;2277;51.626;7.516;2023-07-22T05:07:38;17.40;99.90
4530;DHT22;2277;51.626;7.516;2023-07-22T05:10:04;17.50;99.90
4530;DHT22;2277;51.626;7.516;2023-07-22T05:12:29;17.60;99.90
4530;DHT22;2277;51.626;7.516;2023-07-22T05:14:55;17.60;99.90
4530;DHT22;2277;51.626;7.516;2023-07-22T05:17:20;17.40;99.90
4530;DHT22;2277;51.626;7.516;2023-07-22T05:19:46;17.40;99.90
4530;DHT22;2277;51.626;7.516;2023-07-22T05:22:14;17.50;99.90
4530;DHT22;2277;51.626;7.516;2023-07-22T05:24:40;17.50;99.90
4530;DHT22;2277;51.626;7.516;2023-07-22T05:27:05;17.50;99.90
4530;DHT22;2277;51.626;7.516;2023-07-22T05:29:31;17.50;99.90
4530;DHT22;2277;51.626;7.516;2023-07-22T05:31:56;17.60;99.90
4530;DHT22;2277;51.626;7.516;2023-07-22T05:34:22;17.60;99.90
4530;DHT22;2277;51.626;7.516;2023-07-22T05:36:48;17.50;99.90
4530;DHT22;2277;51.626;7.516;2023-07-22T05:39:13;17.50;99.90
4530;DHT22;2277;51.626;7.516;2023-07-22T05:41:39;17.50;99.90
4530;DHT22;2277;51.626;7.516;2023-07-22T05:44:04;17.50;99.90
4530;DHT22;2277;51.626;7.516;2023-07-22T05:46:30;17.50;99.90
4530;DHT22;2277;51.626;7.516;2023-07-22T05:48:56;17.40;99.90
4530;DHT22;2277;51.626;7.516;2023-07-22T05:51:21;17.40;99.90
4530;DHT22;2277;51.626;7.516;2023-07-22T05:53:48;17.40;99.90
4530;DHT22;2277;51.626;7.516;2023-07-22T05:56:13;17.50;99.90
4530;DHT22;2277;51.626;7.516;2023-07-22T05:58:39;17.60;99.90
4530;DHT22;2277;51.626;7.516;2023-07-22T06:01:04;17.60;99.90
4530;DHT22;2277;51.626;7.516;2023-07-22T06:03:30;17.70;99.90
4530;DHT22;2277;51.626;7.516;2023-07-22T06:05:56;17.80;99.90
4530;DHT22;2277;51.626;7.516;2023-07-22T06:08:21;17.80;99.90
4530;DHT22;2277;51.626;7.516;2023-07-22T06:10:47;17.80;99.90
4530;DHT22;2277;51.626;7.516;2023-07-22T06:13:13;17.80;99.90
4530;DHT22;2277;51.626;7.516;2023-07-22T06:15:38;17.80;99.90
4530;DHT22;2277;51.626;7.516;2023-07-22T06:18:04;17.80;99.90
4530;DHT22;2277;51.626;7.516;2023-07-22T06:20:34;17.70;99.90
4530;DHT22;2277;51.626;7.516;2023-07-22T06:23:01;17.80;99.90
4530;DHT22;2277;51.626;7.516;2023-07-22T06:25:27;17.80;99.90
4530;DHT22;2277;51.626;7.516;2023-07-22T06:27:53;17.80;99.90
4530;DHT22;2277;51.626;7.516;2023-07-22T06:30:21;17.90;99.90
4530;DHT22;2277;51.626;7.516;2023-07-22T06:32:47;17.90;99.90
4530;DHT22;2277;51.626;7.516;2023-07-22T06:35:13;17.90;99.90
4530;DHT22;2277;51.626;7.516;2023-07-22T06:37:38;18.00;99.90
4530;DHT22;2277;51.626;7.516;2023-07-22T06:40:06;18.00;99.90
4530;DHT22;2277;51.626;7.516;2023-07-22T06:42:31;18.00;99.90
4530;DHT22;2277;51.626;7.516;2023-07-22T06:44:57;18.10;99.90
4530;DHT22;2277;51.626;7.516;2023-07-22T06:47:22;18.20;99.90
4530;DHT22;2277;51.626;7.516;2023-07-22T06:49:48;18.30;99.90
4530;DHT22;2277;51.626;7.516;2023-07-22T06:52:13;18.40;99.90
4530;DHT22;2277;51.626;7.516;2023-07-22T06:54:39;18.40;99.90
4530;DHT22;2277;51.626;7.516;2023-07-22T06:57:05;18.60;99.90
4530;DHT22;2277;51.626;7.516;2023-07-22T06:59:31;18.60;99.90
4530;DHT22;2277;51.626;7.516;2023-07-22T07:01:57;18.60;99.90
4530;DHT22;2277;51.626;7.516;2023-07-22T07:04:23;18.70;99.90
4530;DHT22;2277;51.626;7.516;2023-07-22T07:06:49;18.70;99.90
4530;DHT22;2277;51.626;7.516;2023-07-22T07:09:15;18.80;99.90
4530;DHT22;2277;51.626;7.516;2023-07-22T07:11:41;18.90;99.90
4530;DHT22;2277;51.626;7.516;2023-07-22T07:14:06;19.10;99.90
4530;DHT22;2277;51.626;7.516;2023-07-22T07:16:32;19.30;99.90
4530;DHT22;2277;51.626;7.516;2023-07-22T07:19:00;19.50;99.90
4530;DHT22;2277;51.626;7.516;2023-07-22T07:21:26;19.70;99.90
4530;DHT22;2277;51.626;7.516;2023-07-22T07:23:52;19.70;99.90
4530;DHT22;2277;51.626;7.516;2023-07-22T07:26:19;19.70;99.90
4530;DHT22;2277;51.626;7.516;2023-07-22T07:28:45;19.80;99.90
4530;DHT22;2277;51.626;7.516;2023-07-22T07:31:11;20.00;99.90
4530;DHT22;2277;51.626;7.516;2023-07-22T07:33:37;20.20;99.90
4530;DHT22;2277;51.626;7.516;2023-07-22T07:36:03;20.20;99.90
4530;DHT22;2277;51.626;7.516;2023-07-22T07:38:29;20.20;99.90
4530;DHT22;2277;51.626;7.516;2023-07-22T07:40:59;20.20;99.90
4530;DHT22;2277;51.626;7.516;2023-07-22T07:43:26;20.40;99.90
4530;DHT22;2277;51.626;7.516;2023-07-22T07:46:15;20.50;99.90
4530;DHT22;2277;51.626;7.516;2023-07-22T07:48:44;20.60;99.90
4530;DHT22;2277;51.626;7.516;2023-07-22T07:51:11;20.60;99.90
4530;DHT22;2277;51.626;7.516;2023-07-22T07:53:37;20.70;99.90
4530;DHT22;2277;51.626;7.516;2023-07-22T07:56:03;20.70;99.90
4530;DHT22;2277;51.626;7.516;2023-07-22T07:58:28;20.90;99.90
4530;DHT22;2277;51.626;7.516;2023-07-22T08:00:54;21.00;99.90
4530;DHT22;2277;51.626;7.516;2023-07-22T08:03:20;21.20;99.90
4530;DHT22;2277;51.626;7.516;2023-07-22T08:05:46;21.30;99.90
4530;DHT22;2277;51.626;7.516;2023-07-22T08:08:11;21.50;99.90
4530;DHT22;2277;51.626;7.516;2023-07-22T08:10:37;21.60;99.90
4530;DHT22;2277;51.626;7.516;2023-07-22T08:13:02;21.70;99.90
4530;DHT22;2277;51.626;7.516;2023-07-22T08:15:28;21.70;99.90
4530;DHT22;2277;51.626;7.516;2023-07-22T08:17:54;21.70;99.90
4530;DHT22;2277;51.626;7.516;2023-07-22T08:20:19;21.80;99.90
4530;DHT22;2277;51.626;7.516;2023-07-22T08:22:46;21.90;99.90
4530;DHT22;2277;51.626;7.516;2023-07-22T08:25:12;21.90;99.90
4530;DHT22;2277;51.626;7.516;2023-07-22T08:27:37;22.00;99.90
4530;DHT22;2277;51.626;7.516;2023-07-22T08:30:03;22.20;99.90
4530;DHT22;2277;51.626;7.516;2023-07-22T08:32:29;22.30;99.90
4530;DHT22;2277;51.626;7.516;2023-07-22T08:34:54;22.40;99.90
4530;DHT22;2277;51.626;7.516;2023-07-22T08:37:20;22.40;99.90
4530;DHT22;2277;51.626;7.516;2023-07-22T08:39:45;22.50;99.90
4530;DHT22;2277;51.626;7.516;2023-07-22T08:42:11;22.70;99.90
4530;DHT22;2277;51.626;7.516;2023-07-22T08:44:43;22.70;99.90
4530;DHT22;2277;51.626;7.516;2023-07-22T08:47:15;22.90;99.90
4530;DHT22;2277;51.626;7.516;2023-07-22T08:49:45;22.80;99.90
4530;DHT22;2277;51.626;7.516;2023-07-22T08:52:14;22.70;99.90
4530;DHT22;2277;51.626;7.516;2023-07-22T08:54:40;22.80;99.90
4530;DHT22;2277;51.626;7.516;2023-07-22T08:57:06;22.80;99.90
4530;DHT22;2277;51.626;7.516;2023-07-22T08:59:32;22.90;99.90
4530;DHT22;2277;51.626;7.516;2023-07-22T09:01:58;23.10;99.90
4530;DHT22;2277;51.626;7.516;2023-07-22T09:04:24;23.30;99.90
4530;DHT22;2277;51.626;7.516;2023-07-22T09:06:50;23.50;99.90
4530;DHT22;2277;51.626;7.516;2023-07-22T09:09:16;23.40;99.90
4530;DHT22;2277;51.626;7.516;2023-07-22T09:11:42;23.60;99.90
4530;DHT22;2277;51.626;7.516;2023-07-22T09:14:10;23.60;99.90
4530;DHT22;2277;51.626;7.516;2023-07-22T09:16:36;23.60;99.90
4530;DHT22;2277;51.626;7.516;2023-07-22T09:19:03;23.60;99.90
4530;DHT22;2277;51.626;7.516;2023-07-22T09:21:29;23.50;99.90
4530;DHT22;2277;51.626;7.516;2023-07-22T09:23:55;23.60;99.90
4530;DHT22;2277;51.626;7.516;2023-07-22T09:26:20;23.70;99.90
4530;DHT22;2277;51.626;7.516;2023-07-22T09:28:57;23.80;99.90
4530;DHT22;2277;51.626;7.516;2023-07-22T09:31:26;23.80;99.90
4530;DHT22;2277;51.626;7.516;2023-07-22T09:33:54;23.70;99.90
4530;DHT22;2277;51.626;7.516;2023-07-22T09:36:20;23.80;99.90
4530;DHT22;2277;51.626;7.516;2023-07-22T09:38:53;23.70;99.90
4530;DHT22;2277;51.626;7.516;2023-07-22T09:41:28;23.60;99.90
4530;DHT22;2277;51.626;7.516;2023-07-22T09:43:54;23.50;99.90
4530;DHT22;2277;51.626;7.516;2023-07-22T09:46:20;23.60;99.90
4530;DHT22;2277;51.626;7.516;2023-07-22T09:48:46;23.80;99.90
4530;DHT22;2277;51.626;7.516;2023-07-22T09:51:15;24.00;99.80
4530;DHT22;2277;51.626;7.516;2023-07-22T09:53:45;24.10;98.60
4530;DHT22;2277;51.626;7.516;2023-07-22T09:56:11;24.10;98.50
4530;DHT22;2277;51.626;7.516;2023-07-22T09:58:38;24.20;99.00
4530;DHT22;2277;51.626;7.516;2023-07-22T10:01:04;24.40;97.70
4530;DHT22;2277;51.626;7.516;2023-07-22T10:03:31;24.50;97.50
4530;DHT22;2277;51.626;7.516;2023-07-22T10:06:00;24.60;99.50
4530;DHT22;2277;51.626;7.516;2023-07-22T10:08:26;24.70;98.20
4530;DHT22;2277;51.626;7.516;2023-07-22T10:10:57;24.70;98.50
4530;DHT22;2277;51.626;7.516;2023-07-22T10:13:25;24.80;98.00
4530;DHT22;2277;51.626;7.516;2023-07-22T10:15:52;24.70;96.40
4530;DHT22;2277;51.626;7.516;2023-07-22T10:18:18;24.30;97.00
4530;DHT22;2277;51.626;7.516;2023-07-22T10:20:46;24.10;96.70
4530;DHT22;2277;51.626;7.516;2023-07-22T10:23:13;24.00;97.10
4530;DHT22;2277;51.626;7.516;2023-07-22T10:25:40;23.90;98.80
4530;DHT22;2277;51.626;7.516;2023-07-22T10:28:06;24.10;96.90
4530;DHT22;2277;51.626;7.516;2023-07-22T10:30:33;24.10;97.40
4530;DHT22;2277;51.626;7.516;2023-07-22T10:32:59;24.10;98.10
4530;DHT22;2277;51.626;7.516;2023-07-22T10:37:56;24.30;98.00
4530;DHT22;2277;51.626;7.516;2023-07-22T10:40:32;24.40;96.50
4530;DHT22;2277;51.626;7.516;2023-07-22T10:45:27;24.70;97.60
4530;DHT22;2277;51.626;7.516;2023-07-22T10:48:06;24.70;96.00
4530;DHT22;2277;51.626;7.516;2023-07-22T10:50:48;24.70;96.50
4530;DHT22;2277;51.626;7.516;2023-07-22T10:56:14;24.60;96.20
4530;DHT22;2277;51.626;7.516;2023-07-22T11:01:34;24.40;94.70
4530;DHT22;2277;51.626;7.516;2023-07-22T11:12:13;24.80;93.90
4530;DHT22;2277;51.626;7.516;2023-07-22T11:14:51;24.70;94.30
4530;DHT22;2277;51.626;7.516;2023-07-22T11:17:21;24.80;95.10
4530;DHT22;2277;51.626;7.516;2023-07-22T11:19:52;25.00;95.60
4530;DHT22;2277;51.626;7.516;2023-07-22T11:22:17;25.40;96.10
4530;DHT22;2277;51.626;7.516;2023-07-22T11:24:43;25.70;94.20
4530;DHT22;2277;51.626;7.516;2023-07-22T11:27:09;25.80;94.00
4530;DHT22;2277;51.626;7.516;2023-07-22T11:29:35;25.90;92.90
4530;DHT22;2277;51.626;7.516;2023-07-22T11:32:02;26.00;92.30
4530;DHT22;2277;51.626;7.516;2023-07-22T11:34:28;26.10;92.90
4530;DHT22;2277;51.626;7.516;2023-07-22T11:36:55;26.20;92.20
4530;DHT22;2277;51.626;7.516;2023-07-22T11:39:23;26.00;91.30
4530;DHT22;2277;51.626;7.516;2023-07-22T11:41:50;25.90;91.50
4530;DHT22;2277;51.626;7.516;2023-07-22T11:44:27;25.80;92.30
4530;DHT22;2277;51.626;7.516;2023-07-22T11:47:02;25.60;90.70
4530;DHT22;2277;51.626;7.516;2023-07-22T11:49:36;25.70;90.50
4530;DHT22;2277;51.626;7.516;2023-07-22T11:52:16;25.70;90.30
4530;DHT22;2277;51.626;7.516;2023-07-22T11:54:43;25.80;89.90
4530;DHT22;2277;51.626;7.516;2023-07-22T11:57:30;25.70;90.80
4530;DHT22;2277;51.626;7.516;2023-07-22T11:59:56;25.90;90.70
4530;DHT22;2277;51.626;7.516;2023-07-22T12:04:52;26.00;87.70
4530;DHT22;2277;51.626;7.516;2023-07-22T12:09:52;26.20;89.90
4530;DHT22;2277;51.626;7.516;2023-07-22T12:12:18;26.10;87.00
4530;DHT22;2277;51.626;7.516;2023-07-22T12:14:43;26.00;86.10
4530;DHT22;2277;51.626;7.516;2023-07-22T12:17:09;25.90;86.60
4530;DHT22;2277;51.626;7.516;2023-07-22T12:19:35;25.80;88.80
4530;DHT22;2277;51.626;7.516;2023-07-22T12:22:00;25.90;84.60
4530;DHT22;2277;51.626;7.516;2023-07-22T12:24:27;26.00;86.10
4530;DHT22;2277;51.626;7.516;2023-07-22T12:26:53;26.20;85.60
4530;DHT22;2277;51.626;7.516;2023-07-22T12:29:19;26.30;85.40
4530;DHT22;2277;51.626;7.516;2023-07-22T12:31:44;26.20;84.90
4530;DHT22;2277;51.626;7.516;2023-07-22T12:34:10;26.10;84.50
4530;DHT22;2277;51.626;7.516;2023-07-22T12:36:35;26.20;84.40
4530;DHT22;2277;51.626;7.516;2023-07-22T12:39:01;26.00;83.80
4530;DHT22;2277;51.626;7.516;2023-07-22T12:41:27;26.00;85.50
4530;DHT22;2277;51.626;7.516;2023-07-22T12:43:52;26.10;86.00
4530;DHT22;2277;51.626;7.516;2023-07-22T12:46:18;26.00;84.40
4530;DHT22;2277;51.626;7.516;2023-07-22T12:48:44;26.00;85.00
4530;DHT22;2277;51.626;7.516;2023-07-22T12:51:09;26.00;87.00
4530;DHT22;2277;51.626;7.516;2023-07-22T12:53:35;26.30;85.60
4530;DHT22;2277;51.626;7.516;2023-07-22T12:56:01;26.40;84.30
4530;DHT22;2277;51.626;7.516;2023-07-22T12:58:28;26.40;82.70
4530;DHT22;2277;51.626;7.516;2023-07-22T13:00:54;26.50;81.40
4530;DHT22;2277;51.626;7.516;2023-07-22T13:03:20;26.70;81.30
4530;DHT22;2277;51.626;7.516;2023-07-22T13:05:45;26.40;81.10
4530;DHT22;2277;51.626;7.516;2023-07-22T13:08:11;26.60;81.90
4530;DHT22;2277;51.626;7.516;2023-07-22T13:10:36;26.50;80.40
4530;DHT22;2277;51.626;7.516;2023-07-22T13:13:05;26.50;81.90
4530;DHT22;2277;51.626;7.516;2023-07-22T13:15:31;26.40;81.30
4530;DHT22;2277;51.626;7.516;2023-07-22T13:17:57;26.00;80.90
4530;DHT22;2277;51.626;7.516;2023-07-22T13:20:22;26.10;82.10
4530;DHT22;2277;51.626;7.516;2023-07-22T13:22:48;26.20;80.40
4530;DHT22;2277;51.626;7.516;2023-07-22T13:25:13;26.20;80.90
4530;DHT22;2277;51.626;7.516;2023-07-22T13:27:39;26.20;81.00
4530;DHT22;2277;51.626;7.516;2023-07-22T13:30:07;26.20;81.60
4530;DHT22;2277;51.626;7.516;2023-07-22T13:32:33;26.30;86.00
4530;DHT22;2277;51.626;7.516;2023-07-22T13:34:58;26.60;85.70
4530;DHT22;2277;51.626;7.516;2023-07-22T13:37:24;26.90;82.50
4530;DHT22;2277;51.626;7.516;2023-07-22T13:39:49;27.10;83.50
4530;DHT22;2277;51.626;7.516;2023-07-22T13:42:15;27.30;79.40
4530;DHT22;2277;51.626;7.516;2023-07-22T13:44:40;27.40;80.90
4530;DHT22;2277;51.626;7.516;2023-07-22T13:47:06;27.60;76.00
4530;DHT22;2277;51.626;7.516;2023-07-22T13:49:32;27.80;76.00
4530;DHT22;2277;51.626;7.516;2023-07-22T13:51:57;28.00;75.30
4530;DHT22;2277;51.626;7.516;2023-07-22T13:54:23;28.00;73.80
4530;DHT22;2277;51.626;7.516;2023-07-22T13:56:48;28.00;74.20
4530;DHT22;2277;51.626;7.516;2023-07-22T13:59:14;28.00;74.60
4530;DHT22;2277;51.626;7.516;2023-07-22T14:01:40;28.00;73.10
4530;DHT22;2277;51.626;7.516;2023-07-22T14:04:05;28.00;74.80
4530;DHT22;2277;51.626;7.516;2023-07-22T14:06:31;27.90;74.00
4530;DHT22;2277;51.626;7.516;2023-07-22T14:08:58;27.90;74.60
4530;DHT22;2277;51.626;7.516;2023-07-22T14:11:24;27.90;73.50
4530;DHT22;2277;51.626;7.516;2023-07-22T14:13:49;27.80;73.40
4530;DHT22;2277;51.626;7.516;2023-07-22T14:16:17;27.70;70.90
4530;DHT22;2277;51.626;7.516;2023-07-22T14:18:43;27.60;72.50
4530;DHT22;2277;51.626;7.516;2023-07-22T14:21:09;27.40;73.20
4530;DHT22;2277;51.626;7.516;2023-07-22T14:23:39;27.40;73.60
4530;DHT22;2277;51.626;7.516;2023-07-22T14:26:04;27.30;71.80
4530;DHT22;2277;51.626;7.516;2023-07-22T14:28:30;27.30;72.30
4530;DHT22;2277;51.626;7.516;2023-07-22T14:30:56;27.40;73.90
4530;DHT22;2277;51.626;7.516;2023-07-22T14:33:21;27.50;76.00
4530;DHT22;2277;51.626;7.516;2023-07-22T14:35:47;27.60;75.60
4530;DHT22;2277;51.626;7.516;2023-07-22T14:38:12;27.70;71.70
4530;DHT22;2277;51.626;7.516;2023-07-22T14:40:38;27.80;72.40
4530;DHT22;2277;51.626;7.516;2023-07-22T14:43:03;27.80;72.30
4530;DHT22;2277;51.626;7.516;2023-07-22T14:45:29;27.80;71.90
4530;DHT22;2277;51.626;7.516;2023-07-22T14:47:55;27.70;70.70
4530;DHT22;2277;51.626;7.516;2023-07-22T14:50:21;27.70;71.60
4530;DHT22;2277;51.626;7.516;2023-07-22T14:52:47;27.80;71.80
4530;DHT22;2277;51.626;7.516;2023-07-22T14:55:12;27.80;72.30
4530;DHT22;2277;51.626;7.516;2023-07-22T14:57:38;27.90;70.90
4530;DHT22;2277;51.626;7.516;2023-07-22T15:00:05;27.80;68.30
4530;DHT22;2277;51.626;7.516;2023-07-22T15:02:31;27.60;68.80
4530;DHT22;2277;51.626;7.516;2023-07-22T15:04:56;27.70;70.80
4530;DHT22;2277;51.626;7.516;2023-07-22T15:07:22;27.70;68.10
4530;DHT22;2277;51.626;7.516;2023-07-22T15:09:48;27.60;67.00
4530;DHT22;2277;51.626;7.516;2023-07-22T15:12:14;27.50;69.00
4530;DHT22;2277;51.626;7.516;2023-07-22T15:14:40;27.50;71.60
4530;DHT22;2277;51.626;7.516;2023-07-22T15:17:05;27.50;70.70
4530;DHT22;2277;51.626;7.516;2023-07-22T15:19:31;27.50;70.50
4530;DHT22;2277;51.626;7.516;2023-07-22T15:21:56;27.60;67.70
4530;DHT22;2277;51.626;7.516;2023-07-22T15:24:22;27.50;70.60
4530;DHT22;2277;51.626;7.516;2023-07-22T15:26:48;27.60;68.70
4530;DHT22;2277;51.626;7.516;2023-07-22T15:29:13;27.60;67.00
4530;DHT22;2277;51.626;7.516;2023-07-22T15:31:39;27.60;67.00
4530;DHT22;2277;51.626;7.516;2023-07-22T15:34:04;27.60;67.00
4530;DHT22;2277;51.626;7.516;2023-07-22T15:36:30;27.50;67.80
4530;DHT22;2277;51.626;7.516;2023-07-22T15:38:56;27.50;69.00
4530;DHT22;2277;51.626;7.516;2023-07-22T15:41:22;27.50;69.50
4530;DHT22;2277;51.626;7.516;2023-07-22T15:43:48;27.60;65.40
4530;DHT22;2277;51.626;7.516;2023-07-22T15:46:13;27.60;67.10
4530;DHT22;2277;51.626;7.516;2023-07-22T15:48:39;27.60;65.20
4530;DHT22;2277;51.626;7.516;2023-07-22T15:51:04;27.50;64.20
4530;DHT22;2277;51.626;7.516;2023-07-22T15:53:31;27.50;65.10
4530;DHT22;2277;51.626;7.516;2023-07-22T15:55:57;27.30;64.70
4530;DHT22;2277;51.626;7.516;2023-07-22T15:58:22;27.20;67.30
4530;DHT22;2277;51.626;7.516;2023-07-22T16:00:48;27.20;67.00
4530;DHT22;2277;51.626;7.516;2023-07-22T16:03:14;27.20;67.00
4530;DHT22;2277;51.626;7.516;2023-07-22T16:05:40;27.30;68.40
4530;DHT22;2277;51.626;7.516;2023-07-22T16:08:05;27.30;65.20
4530;DHT22;2277;51.626;7.516;2023-07-22T16:10:34;27.40;66.20
4530;DHT22;2277;51.626;7.516;2023-07-22T16:13:00;27.40;68.40
4530;DHT22;2277;51.626;7.516;2023-07-22T16:15:25;27.50;65.90
4530;DHT22;2277;51.626;7.516;2023-07-22T16:17:51;27.50;65.70
4530;DHT22;2277;51.626;7.516;2023-07-22T16:20:18;27.50;64.10